Hart/Shelby (C04)
Oceana, MI
Field Elevation: 910
Lat: 43°38.50N  Long: 86°19.78W
CTAF/Unicom Freq: 122.7000
   
     For Weather-by-Phone, call 231-861-7415
Weather Advisories
2017-11-20   01:57 Z
Altimeter 29.98" Hg
Wind 280° @ 9 KT
Gusts 14 KT
Visibility 10 SM
Temperature -1° C (30° F)
Dewpoint -9° C (16° F)
Relative Humidity 53%
Density Altitude --
Condensation Altitude 5,100 feet
Wind Chill: -6° C (21° F)
Wind and Runways
Indicated Runway = 27
Headwind = 9 kt
Crosswind = 2 kt
History
 
 
 
More Info
NOAA Forecast
 
Airport IQ 5010
(4WN7) GRBC Rescue
(VLA) Vandalia
 
 
FAA Disclaimer: The data displayed is for advisory purposes only and is not to be used for flight planning or operations. For official data, please call 231-861-7415 to hear the current automated AWOS voice message.
  METAR C04 200157Z AUTO 28009G14KT VIS 10 SM M01/M09 A2998